sensor_id;sensor_type;location;lat;lon;timestamp;P1;durP1;ratioP1;P2;durP2;ratioP2
14903;SDS011;7543;53.148;8.234;2022-09-27T00:01:01;5.33;;;3.27;;
14903;SDS011;7543;53.148;8.234;2022-09-27T00:03:32;4.83;;;2.93;;
14903;SDS011;7543;53.148;8.234;2022-09-27T00:06:01;3.70;;;2.60;;
14903;SDS011;7543;53.148;8.234;2022-09-27T00:08:31;5.60;;;2.60;;
14903;SDS011;7543;53.148;8.234;2022-09-27T00:11:01;4.00;;;2.43;;
14903;SDS011;7543;53.148;8.234;2022-09-27T00:13:29;4.20;;;2.40;;
14903;SDS011;7543;53.148;8.234;2022-09-27T00:15:58;3.27;;;2.40;;
14903;SDS011;7543;53.148;8.234;2022-09-27T00:18:27;3.23;;;2.30;;
14903;SDS011;7543;53.148;8.234;2022-09-27T00:20:56;4.67;;;2.43;;
14903;SDS011;7543;53.148;8.234;2022-09-27T00:23:31;3.17;;;2.20;;
14903;SDS011;7543;53.148;8.234;2022-09-27T00:26:00;3.43;;;1.80;;
14903;SDS011;7543;53.148;8.234;2022-09-27T00:28:28;3.20;;;1.70;;
14903;SDS011;7543;53.148;8.234;2022-09-27T00:30:56;3.30;;;1.93;;
14903;SDS011;7543;53.148;8.234;2022-09-27T00:33:25;3.07;;;1.70;;
14903;SDS011;7543;53.148;8.234;2022-09-27T00:35:53;7.30;;;2.37;;
14903;SDS011;7543;53.148;8.234;2022-09-27T00:38:23;1.90;;;1.47;;
14903;SDS011;7543;53.148;8.234;2022-09-27T00:40:51;2.20;;;1.70;;
14903;SDS011;7543;53.148;8.234;2022-09-27T00:43:20;5.90;;;1.40;;
14903;SDS011;7543;53.148;8.234;2022-09-27T00:45:50;1.63;;;1.20;;
14903;SDS011;7543;53.148;8.234;2022-09-27T00:48:21;3.27;;;1.50;;
14903;SDS011;7543;53.148;8.234;2022-09-27T00:50:50;5.17;;;1.30;;
14903;SDS011;7543;53.148;8.234;2022-09-27T00:53:23;2.77;;;1.40;;
14903;SDS011;7543;53.148;8.234;2022-09-27T00:55:54;4.80;;;1.30;;
14903;SDS011;7543;53.148;8.234;2022-09-27T00:58:25;1.77;;;1.20;;
14903;SDS011;7543;53.148;8.234;2022-09-27T01:00:56;3.27;;;1.20;;
14903;SDS011;7543;53.148;8.234;2022-09-27T01:03:28;1.20;;;1.00;;
14903;SDS011;7543;53.148;8.234;2022-09-27T01:06:00;1.67;;;1.10;;
14903;SDS011;7543;53.148;8.234;2022-09-27T01:08:30;2.03;;;0.93;;
14903;SDS011;7543;53.148;8.234;2022-09-27T01:11:03;4.10;;;1.20;;
14903;SDS011;7543;53.148;8.234;2022-09-27T01:13:49;0.50;;;0.50;;
14903;SDS011;7543;53.148;8.234;2022-09-27T01:16:27;1.27;;;0.67;;
14903;SDS011;7543;53.148;8.234;2022-09-27T01:19:01;1.40;;;0.80;;
14903;SDS011;7543;53.148;8.234;2022-09-27T01:21:38;1.30;;;0.60;;
14903;SDS011;7543;53.148;8.234;2022-09-27T01:24:24;0.80;;;0.47;;
14903;SDS011;7543;53.148;8.234;2022-09-27T01:30:12;1.13;;;0.50;;
14903;SDS011;7543;53.148;8.234;2022-09-27T01:32:50;0.50;;;0.50;;
14903;SDS011;7543;53.148;8.234;2022-09-27T01:35:24;0.33;;;0.33;;
14903;SDS011;7543;53.148;8.234;2022-09-27T01:38:00;1.40;;;0.60;;
14903;SDS011;7543;53.148;8.234;2022-09-27T01:40:32;0.63;;;0.50;;
14903;SDS011;7543;53.148;8.234;2022-09-27T01:43:35;0.87;;;0.40;;
14903;SDS011;7543;53.148;8.234;2022-09-27T01:46:09;0.57;;;0.30;;
14903;SDS011;7543;53.148;8.234;2022-09-27T01:48:57;1.43;;;0.57;;
14903;SDS011;7543;53.148;8.234;2022-09-27T01:51:28;5.30;;;0.67;;
14903;SDS011;7543;53.148;8.234;2022-09-27T01:54:00;2.13;;;0.50;;
14903;SDS011;7543;53.148;8.234;2022-09-27T01:56:54;0.70;;;0.40;;
14903;SDS011;7543;53.148;8.234;2022-09-27T01:59:28;1.03;;;0.43;;
14903;SDS011;7543;53.148;8.234;2022-09-27T02:02:11;0.40;;;0.40;;
14903;SDS011;7543;53.148;8.234;2022-09-27T02:05:01;2.10;;;0.50;;
14903;SDS011;7543;53.148;8.234;2022-09-27T02:07:31;0.97;;;0.10;;
14903;SDS011;7543;53.148;8.234;2022-09-27T02:10:03;1.30;;;0.60;;
14903;SDS011;7543;53.148;8.234;2022-09-27T02:12:54;0.20;;;0.20;;
14903;SDS011;7543;53.148;8.234;2022-09-27T02:15:25;1.33;;;0.43;;
14903;SDS011;7543;53.148;8.234;2022-09-27T02:18:15;1.07;;;0.47;;
14903;SDS011;7543;53.148;8.234;2022-09-27T02:20:48;0.47;;;0.37;;
14903;SDS011;7543;53.148;8.234;2022-09-27T02:23:20;0.60;;;0.40;;
14903;SDS011;7543;53.148;8.234;2022-09-27T02:25:58;1.60;;;0.60;;
14903;SDS011;7543;53.148;8.234;2022-09-27T02:28:31;0.97;;;0.50;;
14903;SDS011;7543;53.148;8.234;2022-09-27T02:31:03;0.30;;;0.30;;
14903;SDS011;7543;53.148;8.234;2022-09-27T02:33:37;0.43;;;0.43;;
14903;SDS011;7543;53.148;8.234;2022-09-27T02:36:09;1.43;;;0.60;;
14903;SDS011;7543;53.148;8.234;2022-09-27T02:38:37;1.63;;;0.40;;
14903;SDS011;7543;53.148;8.234;2022-09-27T02:41:11;0.50;;;0.50;;
14903;SDS011;7543;53.148;8.234;2022-09-27T02:43:40;1.00;;;0.63;;
14903;SDS011;7543;53.148;8.234;2022-09-27T02:46:20;1.37;;;0.80;;
14903;SDS011;7543;53.148;8.234;2022-09-27T02:49:01;1.93;;;1.03;;
14903;SDS011;7543;53.148;8.234;2022-09-27T02:51:40;4.93;;;0.90;;
14903;SDS011;7543;53.148;8.234;2022-09-27T02:54:13;3.00;;;1.10;;
14903;SDS011;7543;53.148;8.234;2022-09-27T02:57:06;2.60;;;1.00;;
14903;SDS011;7543;53.148;8.234;2022-09-27T02:59:59;2.30;;;1.27;;
14903;SDS011;7543;53.148;8.234;2022-09-27T03:02:55;2.07;;;1.10;;
14903;SDS011;7543;53.148;8.234;2022-09-27T03:05:40;2.20;;;1.00;;
14903;SDS011;7543;53.148;8.234;2022-09-27T03:08:10;2.03;;;0.97;;
14903;SDS011;7543;53.148;8.234;2022-09-27T03:10:39;2.33;;;1.47;;
14903;SDS011;7543;53.148;8.234;2022-09-27T03:13:07;1.57;;;1.10;;
14903;SDS011;7543;53.148;8.234;2022-09-27T03:15:36;4.17;;;1.03;;
14903;SDS011;7543;53.148;8.234;2022-09-27T03:18:04;2.60;;;1.40;;
14903;SDS011;7543;53.148;8.234;2022-09-27T03:20:43;2.23;;;1.13;;
14903;SDS011;7543;53.148;8.234;2022-09-27T03:23:14;3.73;;;1.20;;
14903;SDS011;7543;53.148;8.234;2022-09-27T03:25:43;2.77;;;1.20;;
14903;SDS011;7543;53.148;8.234;2022-09-27T03:28:12;3.17;;;1.10;;
14903;SDS011;7543;53.148;8.234;2022-09-27T03:30:43;3.37;;;1.20;;
14903;SDS011;7543;53.148;8.234;2022-09-27T03:33:14;1.97;;;1.27;;
14903;SDS011;7543;53.148;8.234;2022-09-27T03:35:50;3.27;;;1.33;;
14903;SDS011;7543;53.148;8.234;2022-09-27T03:38:18;3.47;;;1.23;;
14903;SDS011;7543;53.148;8.234;2022-09-27T03:40:47;1.63;;;1.03;;
14903;SDS011;7543;53.148;8.234;2022-09-27T03:43:16;1.40;;;0.80;;
14903;SDS011;7543;53.148;8.234;2022-09-27T03:45:46;0.80;;;0.80;;
14903;SDS011;7543;53.148;8.234;2022-09-27T03:48:15;1.40;;;0.73;;
14903;SDS011;7543;53.148;8.234;2022-09-27T03:50:43;2.53;;;0.70;;
14903;SDS011;7543;53.148;8.234;2022-09-27T03:53:12;2.03;;;0.80;;
14903;SDS011;7543;53.148;8.234;2022-09-27T03:55:43;1.07;;;0.50;;
14903;SDS011;7543;53.148;8.234;2022-09-27T03:58:12;1.57;;;0.87;;
14903;SDS011;7543;53.148;8.234;2022-09-27T04:00:40;1.90;;;1.03;;
14903;SDS011;7543;53.148;8.234;2022-09-27T04:03:09;2.47;;;0.50;;
14903;SDS011;7543;53.148;8.234;2022-09-27T04:05:56;0.80;;;0.63;;
14903;SDS011;7543;53.148;8.234;2022-09-27T04:08:36;0.70;;;0.50;;
14903;SDS011;7543;53.148;8.234;2022-09-27T04:11:05;0.80;;;0.63;;
14903;SDS011;7543;53.148;8.234;2022-09-27T04:13:35;0.53;;;0.47;;
14903;SDS011;7543;53.148;8.234;2022-09-27T04:16:03;0.40;;;0.40;;
14903;SDS011;7543;53.148;8.234;2022-09-27T04:18:46;2.23;;;0.70;;
14903;SDS011;7543;53.148;8.234;2022-09-27T04:21:43;1.53;;;0.60;;
14903;SDS011;7543;53.148;8.234;2022-09-27T04:24:14;2.20;;;0.40;;
14903;SDS011;7543;53.148;8.234;2022-09-27T04:26:54;1.63;;;0.67;;
14903;SDS011;7543;53.148;8.234;2022-09-27T04:29:26;2.10;;;0.60;;
14903;SDS011;7543;53.148;8.234;2022-09-27T04:31:55;4.57;;;1.03;;
14903;SDS011;7543;53.148;8.234;2022-09-27T04:34:31;1.13;;;0.83;;
14903;SDS011;7543;53.148;8.234;2022-09-27T04:37:22;2.03;;;0.90;;
14903;SDS011;7543;53.148;8.234;2022-09-27T04:39:56;2.03;;;0.80;;
14903;SDS011;7543;53.148;8.234;2022-09-27T04:42:24;0.50;;;0.50;;
14903;SDS011;7543;53.148;8.234;2022-09-27T04:44:52;2.80;;;0.93;;
14903;SDS011;7543;53.148;8.234;2022-09-27T04:47:20;2.00;;;1.03;;
14903;SDS011;7543;53.148;8.234;2022-09-27T04:49:48;1.83;;;1.07;;
14903;SDS011;7543;53.148;8.234;2022-09-27T04:52:17;1.10;;;1.00;;
14903;SDS011;7543;53.148;8.234;2022-09-27T04:54:45;3.43;;;1.00;;
14903;SDS011;7543;53.148;8.234;2022-09-27T04:57:15;1.83;;;1.30;;
14903;SDS011;7543;53.148;8.234;2022-09-27T04:59:44;3.27;;;1.20;;
14903;SDS011;7543;53.148;8.234;2022-09-27T05:02:13;1.53;;;0.80;;
14903;SDS011;7543;53.148;8.234;2022-09-27T05:05:00;1.40;;;1.00;;
14903;SDS011;7543;53.148;8.234;2022-09-27T05:07:35;1.83;;;1.33;;
14903;SDS011;7543;53.148;8.234;2022-09-27T05:10:09;2.67;;;1.33;;
14903;SDS011;7543;53.148;8.234;2022-09-27T05:12:39;3.23;;;1.50;;
14903;SDS011;7543;53.148;8.234;2022-09-27T05:15:08;2.77;;;1.80;;
14903;SDS011;7543;53.148;8.234;2022-09-27T05:17:59;2.33;;;1.40;;
14903;SDS011;7543;53.148;8.234;2022-09-27T05:20:53;6.20;;;2.20;;
14903;SDS011;7543;53.148;8.234;2022-09-27T05:23:28;3.43;;;2.30;;
14903;SDS011;7543;53.148;8.234;2022-09-27T05:25:56;5.53;;;2.20;;
14903;SDS011;7543;53.148;8.234;2022-09-27T05:28:25;3.13;;;1.83;;
14903;SDS011;7543;53.148;8.234;2022-09-27T05:30:54;3.10;;;1.83;;
14903;SDS011;7543;53.148;8.234;2022-09-27T05:33:22;4.00;;;1.63;;
14903;SDS011;7543;53.148;8.234;2022-09-27T05:36:11;2.27;;;1.47;;
14903;SDS011;7543;53.148;8.234;2022-09-27T05:38:39;4.63;;;1.40;;
14903;SDS011;7543;53.148;8.234;2022-09-27T05:41:09;2.47;;;1.13;;
14903;SDS011;7543;53.148;8.234;2022-09-27T05:43:41;2.10;;;0.97;;
14903;SDS011;7543;53.148;8.234;2022-09-27T05:46:09;4.13;;;1.10;;
14903;SDS011;7543;53.148;8.234;2022-09-27T05:48:39;1.83;;;0.90;;
14903;SDS011;7543;53.148;8.234;2022-09-27T05:51:07;2.93;;;1.00;;
14903;SDS011;7543;53.148;8.234;2022-09-27T05:53:39;1.10;;;0.80;;
14903;SDS011;7543;53.148;8.234;2022-09-27T05:56:14;2.60;;;0.90;;
14903;SDS011;7543;53.148;8.234;2022-09-27T05:59:02;0.53;;;0.53;;
14903;SDS011;7543;53.148;8.234;2022-09-27T06:01:50;1.87;;;0.93;;
14903;SDS011;7543;53.148;8.234;2022-09-27T06:04:39;1.93;;;0.90;;
14903;SDS011;7543;53.148;8.234;2022-09-27T06:07:25;2.37;;;0.80;;
14903;SDS011;7543;53.148;8.234;2022-09-27T06:09:54;2.63;;;0.70;;
14903;SDS011;7543;53.148;8.234;2022-09-27T06:12:23;3.60;;;0.90;;
14903;SDS011;7543;53.148;8.234;2022-09-27T06:14:52;1.23;;;0.63;;
14903;SDS011;7543;53.148;8.234;2022-09-27T06:17:33;1.60;;;0.83;;
14903;SDS011;7543;53.148;8.234;2022-09-27T06:20:07;2.40;;;0.80;;
14903;SDS011;7543;53.148;8.234;2022-09-27T06:22:36;3.03;;;0.50;;
14903;SDS011;7543;53.148;8.234;2022-09-27T06:25:05;1.90;;;0.70;;
14903;SDS011;7543;53.148;8.234;2022-09-27T06:27:42;2.17;;;0.63;;
14903;SDS011;7543;53.148;8.234;2022-09-27T06:30:21;1.23;;;0.60;;
14903;SDS011;7543;53.148;8.234;2022-09-27T06:32:56;0.43;;;0.43;;
14903;SDS011;7543;53.148;8.234;2022-09-27T06:35:39;1.27;;;0.80;;
14903;SDS011;7543;53.148;8.234;2022-09-27T06:38:09;0.50;;;0.50;;
14903;SDS011;7543;53.148;8.234;2022-09-27T06:40:45;2.23;;;0.30;;
14903;SDS011;7543;53.148;8.234;2022-09-27T06:43:40;0.50;;;0.50;;
14903;SDS011;7543;53.148;8.234;2022-09-27T06:46:29;1.80;;;0.57;;
14903;SDS011;7543;53.148;8.234;2022-09-27T06:49:23;0.90;;;0.70;;
14903;SDS011;7543;53.148;8.234;2022-09-27T06:51:52;5.97;;;0.57;;
14903;SDS011;7543;53.148;8.234;2022-09-27T06:54:22;1.03;;;0.60;;
14903;SDS011;7543;53.148;8.234;2022-09-27T06:56:50;2.67;;;0.83;;
14903;SDS011;7543;53.148;8.234;2022-09-27T06:59:19;1.20;;;0.70;;
14903;SDS011;7543;53.148;8.234;2022-09-27T07:02:24;0.40;;;0.40;;
14903;SDS011;7543;53.148;8.234;2022-09-27T07:05:13;0.30;;;0.30;;
14903;SDS011;7543;53.148;8.234;2022-09-27T07:08:02;3.40;;;0.60;;
14903;SDS011;7543;53.148;8.234;2022-09-27T07:10:33;1.83;;;0.50;;
14903;SDS011;7543;53.148;8.234;2022-09-27T07:13:03;1.07;;;0.50;;
14903;SDS011;7543;53.148;8.234;2022-09-27T07:15:33;2.27;;;0.40;;
14903;SDS011;7543;53.148;8.234;2022-09-27T07:18:07;1.83;;;0.47;;
14903;SDS011;7543;53.148;8.234;2022-09-27T07:20:35;0.60;;;0.50;;
14903;SDS011;7543;53.148;8.234;2022-09-27T07:23:04;2.63;;;0.80;;
14903;SDS011;7543;53.148;8.234;2022-09-27T07:25:33;2.00;;;0.60;;
14903;SDS011;7543;53.148;8.234;2022-09-27T07:28:02;3.97;;;0.50;;
14903;SDS011;7543;53.148;8.234;2022-09-27T07:30:32;2.43;;;0.67;;
14903;SDS011;7543;53.148;8.234;2022-09-27T07:33:02;1.90;;;0.40;;
14903;SDS011;7543;53.148;8.234;2022-09-27T07:35:33;0.63;;;0.40;;
14903;SDS011;7543;53.148;8.234;2022-09-27T07:38:02;1.60;;;0.67;;
14903;SDS011;7543;53.148;8.234;2022-09-27T07:40:30;0.87;;;0.43;;
14903;SDS011;7543;53.148;8.234;2022-09-27T07:42:59;3.40;;;0.90;;
14903;SDS011;7543;53.148;8.234;2022-09-27T07:45:28;1.47;;;0.70;;
14903;SDS011;7543;53.148;8.234;2022-09-27T07:48:22;0.50;;;0.30;;
14903;SDS011;7543;53.148;8.234;2022-09-27T07:51:00;3.13;;;0.80;;
14903;SDS011;7543;53.148;8.234;2022-09-27T07:53:47;3.73;;;0.40;;
14903;SDS011;7543;53.148;8.234;2022-09-27T07:56:34;2.00;;;0.73;;
14903;SDS011;7543;53.148;8.234;2022-09-27T07:59:04;0.90;;;0.57;;
14903;SDS011;7543;53.148;8.234;2022-09-27T08:01:34;1.27;;;0.37;;
14903;SDS011;7543;53.148;8.234;2022-09-27T08:04:02;0.77;;;0.40;;
14903;SDS011;7543;53.148;8.234;2022-09-27T08:06:32;2.07;;;0.43;;
14903;SDS011;7543;53.148;8.234;2022-09-27T08:09:04;0.53;;;0.40;;
14903;SDS011;7543;53.148;8.234;2022-09-27T08:11:33;1.53;;;0.60;;
14903;SDS011;7543;53.148;8.234;2022-09-27T08:14:03;1.40;;;0.57;;
14903;SDS011;7543;53.148;8.234;2022-09-27T08:16:33;0.63;;;0.40;;
14903;SDS011;7543;53.148;8.234;2022-09-27T08:19:19;2.33;;;0.40;;
14903;SDS011;7543;53.148;8.234;2022-09-27T08:22:18;0.67;;;0.37;;
14903;SDS011;7543;53.148;8.234;2022-09-27T08:24:59;1.03;;;0.63;;
14903;SDS011;7543;53.148;8.234;2022-09-27T08:27:40;1.97;;;0.50;;
14903;SDS011;7543;53.148;8.234;2022-09-27T08:30:20;2.60;;;1.00;;
14903;SDS011;7543;53.148;8.234;2022-09-27T08:32:48;1.33;;;0.70;;
14903;SDS011;7543;53.148;8.234;2022-09-27T08:35:17;3.23;;;0.63;;
14903;SDS011;7543;53.148;8.234;2022-09-27T08:37:52;2.17;;;0.40;;
14903;SDS011;7543;53.148;8.234;2022-09-27T08:40:22;1.60;;;0.40;;
14903;SDS011;7543;53.148;8.234;2022-09-27T08:42:59;0.60;;;0.47;;
14903;SDS011;7543;53.148;8.234;2022-09-27T08:45:31;0.40;;;0.40;;
14903;SDS011;7543;53.148;8.234;2022-09-27T08:48:03;2.07;;;0.90;;
14903;SDS011;7543;53.148;8.234;2022-09-27T08:50:32;3.20;;;0.70;;
14903;SDS011;7543;53.148;8.234;2022-09-27T08:53:21;3.80;;;0.70;;
14903;SDS011;7543;53.148;8.234;2022-09-27T08:55:54;1.90;;;0.60;;
14903;SDS011;7543;53.148;8.234;2022-09-27T08:58:38;2.87;;;0.53;;
14903;SDS011;7543;53.148;8.234;2022-09-27T09:01:30;2.43;;;0.83;;
14903;SDS011;7543;53.148;8.234;2022-09-27T09:04:07;0.80;;;0.57;;
14903;SDS011;7543;53.148;8.234;2022-09-27T09:06:38;1.87;;;0.80;;
14903;SDS011;7543;53.148;8.234;2022-09-27T09:09:12;1.50;;;0.73;;
14903;SDS011;7543;53.148;8.234;2022-09-27T09:12:07;3.07;;;0.63;;
14903;SDS011;7543;53.148;8.234;2022-09-27T09:15:06;1.30;;;0.77;;
14903;SDS011;7543;53.148;8.234;2022-09-27T09:17:45;0.67;;;0.50;;
14903;SDS011;7543;53.148;8.234;2022-09-27T09:20:49;2.93;;;0.90;;
14903;SDS011;7543;53.148;8.234;2022-09-27T09:23:26;1.73;;;0.70;;
14903;SDS011;7543;53.148;8.234;2022-09-27T09:26:12;1.83;;;0.73;;
14903;SDS011;7543;53.148;8.234;2022-09-27T09:28:46;0.63;;;0.60;;
14903;SDS011;7543;53.148;8.234;2022-09-27T09:31:22;4.03;;;1.00;;
14903;SDS011;7543;53.148;8.234;2022-09-27T09:33:57;2.77;;;0.80;;
14903;SDS011;7543;53.148;8.234;2022-09-27T09:36:27;0.97;;;0.73;;
14903;SDS011;7543;53.148;8.234;2022-09-27T09:38:58;2.07;;;1.37;;
14903;SDS011;7543;53.148;8.234;2022-09-27T09:41:32;0.97;;;0.87;;
14903;SDS011;7543;53.148;8.234;2022-09-27T09:44:04;4.63;;;0.90;;
14903;SDS011;7543;53.148;8.234;2022-09-27T09:46:35;1.70;;;0.77;;
14903;SDS011;7543;53.148;8.234;2022-09-27T09:49:09;0.53;;;0.50;;
14903;SDS011;7543;53.148;8.234;2022-09-27T09:51:43;0.60;;;0.60;;
14903;SDS011;7543;53.148;8.234;2022-09-27T09:54:14;2.37;;;0.67;;
14903;SDS011;7543;53.148;8.234;2022-09-27T09:56:48;1.33;;;0.70;;
14903;SDS011;7543;53.148;8.234;2022-09-27T09:59:22;1.00;;;0.73;;
14903;SDS011;7543;53.148;8.234;2022-09-27T10:01:54;2.37;;;0.70;;
14903;SDS011;7543;53.148;8.234;2022-09-27T10:04:26;4.07;;;1.00;;
14903;SDS011;7543;53.148;8.234;2022-09-27T10:06:56;2.67;;;0.50;;
14903;SDS011;7543;53.148;8.234;2022-09-27T10:09:29;1.10;;;0.60;;
14903;SDS011;7543;53.148;8.234;2022-09-27T10:12:26;0.53;;;0.53;;
14903;SDS011;7543;53.148;8.234;2022-09-27T10:14:56;0.97;;;0.77;;
14903;SDS011;7543;53.148;8.234;2022-09-27T10:17:31;0.93;;;0.77;;
14903;SDS011;7543;53.148;8.234;2022-09-27T10:20:03;1.10;;;0.70;;
14903;SDS011;7543;53.148;8.234;2022-09-27T10:22:34;1.37;;;0.80;;
14903;SDS011;7543;53.148;8.234;2022-09-27T10:25:12;0.97;;;0.53;;
14903;SDS011;7543;53.148;8.234;2022-09-27T10:27:48;1.50;;;0.90;;
14903;SDS011;7543;53.148;8.234;2022-09-27T10:30:23;1.73;;;0.70;;
14903;SDS011;7543;53.148;8.234;2022-09-27T10:32:55;1.70;;;0.67;;
14903;SDS011;7543;53.148;8.234;2022-09-27T10:35:40;1.17;;;0.90;;
14903;SDS011;7543;53.148;8.234;2022-09-27T10:38:18;2.20;;;0.60;;
14903;SDS011;7543;53.148;8.234;2022-09-27T10:40:50;2.30;;;0.63;;
14903;SDS011;7543;53.148;8.234;2022-09-27T10:43:24;0.90;;;0.60;;
14903;SDS011;7543;53.148;8.234;2022-09-27T10:46:05;2.97;;;0.97;;
14903;SDS011;7543;53.148;8.234;2022-09-27T10:48:40;4.63;;;1.30;;
14903;SDS011;7543;53.148;8.234;2022-09-27T10:51:21;1.47;;;0.80;;
14903;SDS011;7543;53.148;8.234;2022-09-27T10:53:53;2.33;;;0.60;;
14903;SDS011;7543;53.148;8.234;2022-09-27T10:56:30;2.53;;;0.40;;
14903;SDS011;7543;53.148;8.234;2022-09-27T10:59:02;1.60;;;0.50;;
14903;SDS011;7543;53.148;8.234;2022-09-27T11:01:38;1.27;;;0.80;;
14903;SDS011;7543;53.148;8.234;2022-09-27T11:04:19;1.60;;;0.43;;
14903;SDS011;7543;53.148;8.234;2022-09-27T11:06:48;1.17;;;0.50;;
14903;SDS011;7543;53.148;8.234;2022-09-27T11:09:18;1.63;;;0.67;;
14903;SDS011;7543;53.148;8.234;2022-09-27T11:11:54;1.33;;;0.57;;
14903;SDS011;7543;53.148;8.234;2022-09-27T11:14:35;1.57;;;0.50;;
14903;SDS011;7543;53.148;8.234;2022-09-27T11:17:12;2.37;;;0.50;;
14903;SDS011;7543;53.148;8.234;2022-09-27T11:19:55;2.67;;;0.70;;
14903;SDS011;7543;53.148;8.234;2022-09-27T11:22:35;4.80;;;0.63;;
14903;SDS011;7543;53.148;8.234;2022-09-27T11:25:15;0.93;;;0.80;;
14903;SDS011;7543;53.148;8.234;2022-09-27T11:27:53;6.90;;;0.50;;
14903;SDS011;7543;53.148;8.234;2022-09-27T11:30:34;0.30;;;0.30;;
14903;SDS011;7543;53.148;8.234;2022-09-27T11:36:53;0.57;;;0.50;;
14903;SDS011;7543;53.148;8.234;2022-09-27T11:39:31;0.47;;;0.33;;
14903;SDS011;7543;53.148;8.234;2022-09-27T11:42:09;1.03;;;0.50;;
14903;SDS011;7543;53.148;8.234;2022-09-27T11:44:55;1.77;;;0.60;;
14903;SDS011;7543;53.148;8.234;2022-09-27T11:47:35;0.90;;;0.50;;
14903;SDS011;7543;53.148;8.234;2022-09-27T11:53:12;1.73;;;0.60;;
14903;SDS011;7543;53.148;8.234;2022-09-27T11:55:50;1.20;;;0.50;;
14903;SDS011;7543;53.148;8.234;2022-09-27T11:58:24;0.63;;;0.50;;
14903;SDS011;7543;53.148;8.234;2022-09-27T12:01:08;1.30;;;0.63;;
14903;SDS011;7543;53.148;8.234;2022-09-27T12:04:00;2.30;;;0.57;;
14903;SDS011;7543;53.148;8.234;2022-09-27T12:06:38;0.97;;;0.50;;
14903;SDS011;7543;53.148;8.234;2022-09-27T12:09:11;1.07;;;0.30;;
14903;SDS011;7543;53.148;8.234;2022-09-27T12:11:42;0.40;;;0.40;;
14903;SDS011;7543;53.148;8.234;2022-09-27T12:14:15;0.30;;;0.30;;
14903;SDS011;7543;53.148;8.234;2022-09-27T12:16:48;1.63;;;0.70;;
14903;SDS011;7543;53.148;8.234;2022-09-27T12:19:21;1.47;;;0.37;;
14903;SDS011;7543;53.148;8.234;2022-09-27T12:22:04;2.83;;;0.30;;
14903;SDS011;7543;53.148;8.234;2022-09-27T12:24:41;0.60;;;0.33;;
14903;SDS011;7543;53.148;8.234;2022-09-27T12:27:31;0.93;;;0.30;;
14903;SDS011;7543;53.148;8.234;2022-09-27T12:30:04;0.33;;;0.30;;
14903;SDS011;7543;53.148;8.234;2022-09-27T12:32:34;1.23;;;0.40;;
14903;SDS011;7543;53.148;8.234;2022-09-27T12:35:09;1.13;;;0.40;;
14903;SDS011;7543;53.148;8.234;2022-09-27T12:37:43;1.13;;;0.40;;
14903;SDS011;7543;53.148;8.234;2022-09-27T12:40:14;0.67;;;0.40;;
14903;SDS011;7543;53.148;8.234;2022-09-27T12:42:49;2.97;;;0.40;;
14903;SDS011;7543;53.148;8.234;2022-09-27T12:45:26;0.37;;;0.27;;
14903;SDS011;7543;53.148;8.234;2022-09-27T12:48:04;0.63;;;0.33;;
14903;SDS011;7543;53.148;8.234;2022-09-27T12:50:39;0.90;;;0.50;;
14903;SDS011;7543;53.148;8.234;2022-09-27T12:53:11;1.47;;;0.50;;
14903;SDS011;7543;53.148;8.234;2022-09-27T12:55:58;0.77;;;0.33;;
14903;SDS011;7543;53.148;8.234;2022-09-27T12:58:48;0.20;;;0.20;;
14903;SDS011;7543;53.148;8.234;2022-09-27T13:01:31;1.03;;;0.10;;
14903;SDS011;7543;53.148;8.234;2022-09-27T13:04:09;1.27;;;0.40;;
14903;SDS011;7543;53.148;8.234;2022-09-27T13:07:08;0.87;;;0.30;;
14903;SDS011;7543;53.148;8.234;2022-09-27T13:09:48;2.10;;;0.40;;
14903;SDS011;7543;53.148;8.234;2022-09-27T13:12:33;1.33;;;0.60;;
14903;SDS011;7543;53.148;8.234;2022-09-27T13:15:02;0.50;;;0.50;;
14903;SDS011;7543;53.148;8.234;2022-09-27T13:17:33;0.50;;;0.37;;
14903;SDS011;7543;53.148;8.234;2022-09-27T13:20:38;0.20;;;0.20;;
14903;SDS011;7543;53.148;8.234;2022-09-27T13:26:44;0.30;;;0.20;;
14903;SDS011;7543;53.148;8.234;2022-09-27T13:29:26;0.10;;;0.10;;
14903;SDS011;7543;53.148;8.234;2022-09-27T13:32:00;1.00;;;0.50;;
14903;SDS011;7543;53.148;8.234;2022-09-27T13:35:16;0.20;;;0.20;;
14903;SDS011;7543;53.148;8.234;2022-09-27T13:37:48;0.53;;;0.17;;
14903;SDS011;7543;53.148;8.234;2022-09-27T13:40:32;2.67;;;0.30;;
14903;SDS011;7543;53.148;8.234;2022-09-27T13:46:37;2.47;;;0.40;;
14903;SDS011;7543;53.148;8.234;2022-09-27T13:49:14;0.47;;;0.27;;
14903;SDS011;7543;53.148;8.234;2022-09-27T13:52:13;0.90;;;0.50;;
14903;SDS011;7543;53.148;8.234;2022-09-27T13:54:50;0.93;;;0.50;;
14903;SDS011;7543;53.148;8.234;2022-09-27T13:57:44;0.33;;;0.33;;
14903;SDS011;7543;53.148;8.234;2022-09-27T14:00:21;0.77;;;0.30;;
14903;SDS011;7543;53.148;8.234;2022-09-27T14:02:58;0.20;;;0.20;;
14903;SDS011;7543;53.148;8.234;2022-09-27T14:05:30;1.63;;;0.40;;
14903;SDS011;7543;53.148;8.234;2022-09-27T14:10:35;0.27;;;0.27;;
14903;SDS011;7543;53.148;8.234;2022-09-27T14:13:06;1.23;;;0.40;;
14903;SDS011;7543;53.148;8.234;2022-09-27T14:15:45;0.33;;;0.30;;
14903;SDS011;7543;53.148;8.234;2022-09-27T14:18:14;0.47;;;0.20;;
14903;SDS011;7543;53.148;8.234;2022-09-27T14:20:43;0.70;;;0.40;;
14903;SDS011;7543;53.148;8.234;2022-09-27T14:23:34;0.33;;;0.30;;
14903;SDS011;7543;53.148;8.234;2022-09-27T14:26:03;1.00;;;0.50;;
14903;SDS011;7543;53.148;8.234;2022-09-27T14:28:40;0.40;;;0.40;;
14903;SDS011;7543;53.148;8.234;2022-09-27T14:31:34;3.07;;;0.50;;
14903;SDS011;7543;53.148;8.234;2022-09-27T14:34:14;0.40;;;0.30;;
14903;SDS011;7543;53.148;8.234;2022-09-27T14:36:47;0.60;;;0.50;;
14903;SDS011;7543;53.148;8.234;2022-09-27T14:39:45;0.50;;;0.50;;
14903;SDS011;7543;53.148;8.234;2022-09-27T14:42:32;0.80;;;0.47;;
14903;SDS011;7543;53.148;8.234;2022-09-27T14:45:06;0.60;;;0.40;;
14903;SDS011;7543;53.148;8.234;2022-09-27T14:47:46;0.30;;;0.30;;
14903;SDS011;7543;53.148;8.234;2022-09-27T14:50:17;0.93;;;0.20;;
14903;SDS011;7543;53.148;8.234;2022-09-27T14:52:46;0.20;;;0.17;;
14903;SDS011;7543;53.148;8.234;2022-09-27T14:55:18;1.40;;;0.43;;
14903;SDS011;7543;53.148;8.234;2022-09-27T14:57:48;1.13;;;0.30;;
14903;SDS011;7543;53.148;8.234;2022-09-27T15:00:20;0.60;;;0.40;;
14903;SDS011;7543;53.148;8.234;2022-09-27T15:02:52;0.43;;;0.30;;
14903;SDS011;7543;53.148;8.234;2022-09-27T15:05:21;0.80;;;0.40;;
14903;SDS011;7543;53.148;8.234;2022-09-27T15:07:50;0.60;;;0.30;;
14903;SDS011;7543;53.148;8.234;2022-09-27T15:10:21;0.70;;;0.50;;
14903;SDS011;7543;53.148;8.234;2022-09-27T15:12:53;0.63;;;0.20;;
14903;SDS011;7543;53.148;8.234;2022-09-27T15:15:27;2.63;;;0.40;;
14903;SDS011;7543;53.148;8.234;2022-09-27T15:17:57;0.20;;;0.20;;
14903;SDS011;7543;53.148;8.234;2022-09-27T15:20:27;0.20;;;0.20;;
14903;SDS011;7543;53.148;8.234;2022-09-27T15:22:57;0.30;;;0.30;;
14903;SDS011;7543;53.148;8.234;2022-09-27T15:25:26;0.20;;;0.20;;
14903;SDS011;7543;53.148;8.234;2022-09-27T15:28:00;1.07;;;0.53;;
14903;SDS011;7543;53.148;8.234;2022-09-27T15:30:36;0.57;;;0.30;;
14903;SDS011;7543;53.148;8.234;2022-09-27T15:33:06;2.00;;;0.47;;
14903;SDS011;7543;53.148;8.234;2022-09-27T15:35:46;0.60;;;0.40;;
14903;SDS011;7543;53.148;8.234;2022-09-27T15:38:24;1.17;;;0.60;;
14903;SDS011;7543;53.148;8.234;2022-09-27T15:40:58;0.47;;;0.40;;
14903;SDS011;7543;53.148;8.234;2022-09-27T15:43:28;1.00;;;0.33;;
14903;SDS011;7543;53.148;8.234;2022-09-27T15:45:59;0.50;;;0.43;;
14903;SDS011;7543;53.148;8.234;2022-09-27T15:48:29;0.83;;;0.40;;
14903;SDS011;7543;53.148;8.234;2022-09-27T15:50:58;4.00;;;0.57;;
14903;SDS011;7543;53.148;8.234;2022-09-27T15:53:41;0.50;;;0.40;;
14903;SDS011;7543;53.148;8.234;2022-09-27T15:56:14;0.30;;;0.20;;
14903;SDS011;7543;53.148;8.234;2022-09-27T15:58:42;0.80;;;0.63;;
14903;SDS011;7543;53.148;8.234;2022-09-27T16:01:16;1.07;;;0.53;;
14903;SDS011;7543;53.148;8.234;2022-09-27T16:03:47;0.70;;;0.57;;
14903;SDS011;7543;53.148;8.234;2022-09-27T16:06:16;0.60;;;0.50;;
14903;SDS011;7543;53.148;8.234;2022-09-27T16:08:45;0.60;;;0.50;;
14903;SDS011;7543;53.148;8.234;2022-09-27T16:11:14;0.60;;;0.50;;